Graymont, Illinois
Current Conditions -  °F | °C
As of 7:35 AM on Monday 22 Dec 2014 (Local Time) from KPNT Reporting Station
Haze Haze  
Wind Chill: 24°   Ceiling: 4600
Heat Index: 33°   Visibility: 5mi
Dew Point: 31°   Wind: 13mph
Humidity: 94%   Direction: 110°ESE
Pressure: 29.88"   Gusts: NA
Location:  40.88°N, 88.78°W
Report Text: KPNT 221335Z AUTO 11011KT 5SM BR OVC046 01/00 A2988 RMK AO2 T00051003
Loading
Personal Weather Stations






























Interactive Weather Map New forecast layout! Learn more

10-Day Weather Forecast

Advertisements
Track Severe Weather on mobile